Time;durP1;ratioP1;P1;durP2;ratioP2;P2;SDS_P1;SDS_P2;PMS_P1;PMS_P2;Temp;Humidity;BMP_temperature;BMP_pressure;BME280_temperature;BME280_humidity;BME280_pressure;Samples;Min_cycle;Max_cycle;Signal;HPM_P1;HPM_P2
2022/01/17 00:01:46;;;;;;;9.30;1.27;;;;;;;17.38;36.02;103190.41;5112547;27;20712;-67
2022/01/17 00:04:12;;;;;;;6.77;1.30;;;;;;;18.11;35.41;103193.75;5115194;27;20487;-67
2022/01/17 00:06:39;;;;;;;7.30;1.10;;;;;;;17.26;36.93;103190.41;5132898;27;20027;-67
2022/01/17 00:09:05;;;;;;;7.00;1.20;;;;;;;16.33;38.97;103192.88;5133666;27;20027;-67
2022/01/17 00:11:30;;;;;;;21.07;1.73;;;;;;;16.79;38.89;103190.34;5129768;27;20036;-67
2022/01/17 00:13:57;;;;;;;10.73;1.10;;;;;;;17.60;36.69;103185.06;5114006;27;20035;-67
2022/01/17 00:16:32;;;;;;;13.60;1.73;;;;;;;18.19;35.74;103179.59;5133914;27;20437;-67
2022/01/17 00:19:18;;;;;;;3.97;0.67;;;;;;;15.82;39.15;103192.66;5114343;27;20027;-67
2022/01/17 00:21:44;;;;;;;7.80;1.13;;;;;;;16.90;36.75;103197.47;5117472;27;20103;-67
2022/01/17 00:24:09;;;;;;;5.97;1.00;;;;;;;16.98;36.26;103206.28;5114712;27;20026;-67
2022/01/17 00:26:35;;;;;;;5.00;1.90;;;;;;;18.29;34.14;103213.09;5133385;27;20019;-67
2022/01/17 00:29:00;;;;;;;17.80;1.47;;;;;;;16.88;36.47;103210.59;5114801;27;20062;-67
2022/01/17 00:31:25;;;;;;;10.83;1.17;;;;;;;17.57;34.89;103214.16;5132294;27;20118;-67
2022/01/17 00:33:51;;;;;;;11.80;2.27;;;;;;;16.07;37.56;103220.06;5132511;27;20173;-67
2022/01/17 00:36:16;;;;;;;5.93;1.83;;;;;;;17.62;34.78;103218.53;5115010;27;20023;-67
2022/01/17 00:38:42;;;;;;;6.17;1.43;;;;;;;16.94;35.85;103215.06;5133287;27;20027;-67
2022/01/17 00:41:07;;;;;;;11.30;1.13;;;;;;;16.87;36.18;103219.44;5132482;27;20027;-67
2022/01/17 00:43:33;;;;;;;12.40;1.30;;;;;;;16.39;36.68;103211.38;5113232;27;20058;-66
2022/01/17 00:45:58;;;;;;;18.23;1.43;;;;;;;15.97;37.28;103202.41;5114993;27;20023;-67
2022/01/17 00:48:23;;;;;;;9.83;1.60;;;;;;;16.92;35.84;103191.25;5131956;27;20469;-67
2022/01/17 00:50:50;;;;;;;10.90;1.40;;;;;;;16.27;36.97;103195.50;5114938;27;20019;-67
2022/01/17 00:53:15;;;;;;;8.17;1.20;;;;;;;17.17;35.09;103212.41;5114641;27;20023;-67
2022/01/17 00:55:40;;;;;;;7.67;1.73;;;;;;;16.33;36.26;103205.19;5130177;27;20038;-67
2022/01/17 00:58:06;;;;;;;7.60;1.67;;;;;;;16.49;36.50;103214.06;5114225;27;20023;-67
2022/01/17 01:00:32;;;;;;;6.97;1.33;;;;;;;16.05;36.81;103205.97;5114496;27;20023;-67
2022/01/17 01:02:58;;;;;;;6.53;1.37;;;;;;;16.84;35.56;103200.03;5132611;27;20027;-67
2022/01/17 01:05:23;;;;;;;6.87;0.93;;;;;;;16.29;36.74;103206.94;5113512;27;20054;-67
2022/01/17 01:07:50;;;;;;;7.10;1.00;;;;;;;16.88;35.34;103204.44;5113604;27;20391;-67
2022/01/17 01:10:16;;;;;;;6.33;1.60;;;;;;;16.40;36.42;103192.03;5114674;27;20395;-67
2022/01/17 01:12:45;;;;;;;7.60;1.20;;;;;;;15.93;36.77;103193.59;5132060;27;20026;-67
2022/01/17 01:15:19;;;;;;;6.83;1.30;;;;;;;15.07;37.96;103195.59;5131757;27;20698;-67
2022/01/17 01:17:53;;;;;;;13.37;1.13;;;;;;;15.47;37.84;103202.94;5114090;27;20104;-67
2022/01/17 01:28:37;;;;;;;8.20;1.27;;;;;;;15.77;37.43;103204.91;5132532;27;20119;-67
2022/01/17 01:31:08;;;;;;;4.97;0.80;;;;;;;16.19;36.44;103207.78;5131326;27;20098;-67
2022/01/17 01:33:37;;;;;;;8.30;1.37;;;;;;;16.72;35.52;103214.09;5114261;27;20027;-67
2022/01/17 01:36:27;;;;;;;16.70;1.80;;;;;;;16.82;35.13;103230.88;5111635;27;20019;-67
2022/01/17 01:38:51;;;;;;;10.03;1.10;;;;;;;16.77;35.34;103221.19;5131985;27;20074;-67
2022/01/17 01:41:17;;;;;;;11.63;0.93;;;;;;;15.67;36.90;103225.06;5113369;27;20059;-67
2022/01/17 01:43:42;;;;;;;9.30;1.40;;;;;;;17.22;34.66;103230.94;5092952;28;20022;-67
2022/01/17 01:46:10;;;;;;;3.00;0.60;;;;;;;16.01;37.05;103234.97;5098221;27;20110;-67
2022/01/17 01:48:35;;;;;;;5.47;1.00;;;;;;;16.45;35.91;103237.78;5113334;27;20031;-67
2022/01/17 01:51:01;;;;;;;7.40;0.83;;;;;;;15.82;37.16;103233.97;5112949;27;20110;-67
2022/01/17 01:53:27;;;;;;;10.53;1.00;;;;;;;15.55;37.81;103231.13;5100826;28;20035;-68
2022/01/17 01:55:55;;;;;;;7.30;0.87;;;;;;;16.02;37.02;103237.63;5112306;27;20030;-68
2022/01/17 01:58:23;;;;;;;12.03;1.23;;;;;;;15.78;37.08;103243.59;5112009;27;20510;-67
2022/01/17 02:00:49;;;;;;;7.90;0.90;;;;;;;16.27;36.50;103243.00;5112993;27;20399;-68
2022/01/17 02:03:14;;;;;;;5.43;1.20;;;;;;;16.23;36.57;103228.91;5131841;27;20035;-67
2022/01/17 02:05:40;;;;;;;9.17;1.00;;;;;;;15.77;37.48;103220.72;5131156;27;20435;-67
2022/01/17 02:08:09;;;;;;;5.57;1.20;;;;;;;16.37;36.66;103228.97;5113057;27;20027;-67
2022/01/17 02:10:34;;;;;;;5.40;0.80;;;;;;;15.46;38.49;103235.47;5111512;27;20035;-67
2022/01/17 02:12:59;;;;;;;7.80;0.80;;;;;;;14.93;39.61;103230.63;5112613;27;20027;-67
2022/01/17 02:15:25;;;;;;;5.97;1.30;;;;;;;14.90;39.24;103230.56;5131867;27;20031;-67
2022/01/17 02:17:55;;;;;;;11.90;1.97;;;;;;;15.59;38.24;103219.75;5112909;27;20046;-67
2022/01/17 02:20:23;;;;;;;20.67;1.27;;;;;;;15.75;38.13;103212.81;5103599;28;20156;-68
2022/01/17 02:22:51;;;;;;;6.53;0.90;;;;;;;15.78;37.72;103214.56;5102085;27;20034;-67
2022/01/17 02:25:16;;;;;;;7.43;1.20;;;;;;;15.97;37.21;103201.53;5111085;27;20053;-67
2022/01/17 02:27:42;;;;;;;7.63;1.30;;;;;;;15.24;38.96;103211.56;5131448;27;20102;-67
2022/01/17 02:30:08;;;;;;;3.27;0.70;;;;;;;14.67;39.67;103225.09;5098060;27;20042;-67
2022/01/17 02:32:34;;;;;;;5.40;0.70;;;;;;;15.84;37.80;103221.66;5130257;27;20041;-68
2022/01/17 02:35:17;;;;;;;7.70;1.13;;;;;;;15.25;38.42;103221.25;5131798;27;20486;-67
2022/01/17 02:37:43;;;;;;;11.17;1.23;;;;;;;15.20;38.71;103223.81;5113002;27;20015;-67
2022/01/17 02:40:10;;;;;;;4.90;0.60;;;;;;;16.10;37.06;103216.53;5093084;28;20028;-68
2022/01/17 02:42:36;;;;;;;6.37;1.10;;;;;;;15.46;38.43;103219.66;5098724;27;20026;-68
2022/01/17 02:45:11;;;;;;;10.90;1.30;;;;;;;15.24;39.52;103222.97;5111930;27;20079;-67
2022/01/17 02:47:37;;;;;;;12.67;1.20;;;;;;;15.07;39.47;103238.66;5125383;27;20031;-67
2022/01/17 02:50:03;;;;;;;5.37;1.00;;;;;;;15.73;38.48;103230.38;5112490;27;20049;-67
2022/01/17 02:52:28;;;;;;;5.03;1.00;;;;;;;15.19;39.60;103236.97;5128931;27;20040;-68
2022/01/17 02:54:54;;;;;;;9.87;1.30;;;;;;;15.25;39.61;103247.59;5129165;27;20035;-68
2022/01/17 02:57:19;;;;;;;6.50;0.97;;;;;;;15.07;40.66;103243.91;5130174;27;20027;-67
2022/01/17 02:59:45;;;;;;;5.03;1.40;;;;;;;15.24;40.29;103244.06;5129777;27;20023;-67
2022/01/17 03:02:10;;;;;;;5.57;1.03;;;;;;;15.33;40.06;103235.38;5111096;28;20464;-67
2022/01/17 03:04:35;;;;;;;9.37;1.20;;;;;;;16.26;37.99;103231.56;5111850;27;20031;-67
2022/01/17 03:07:01;;;;;;;11.03;1.37;;;;;;;15.87;38.44;103227.00;5112358;27;20058;-67
2022/01/17 03:09:30;;;;;;;10.83;1.43;;;;;;;15.69;39.98;103238.25;5111181;27;20035;-67
2022/01/17 03:11:56;;;;;;;8.57;1.13;;;;;;;14.80;42.03;103243.66;5123123;27;20027;-67
2022/01/17 03:14:21;;;;;;;8.23;2.70;;;;;;;15.21;40.98;103237.91;5111708;27;20080;-67
2022/01/17 03:16:48;;;;;;;4.17;1.00;;;;;;;14.85;41.62;103236.66;5103831;27;20076;-67
2022/01/17 03:19:15;;;;;;;10.20;1.30;;;;;;;15.24;40.80;103240.56;5112023;28;20501;-67
2022/01/17 03:21:40;;;;;;;5.30;1.67;;;;;;;15.38;41.20;103238.91;5128798;27;20074;-67
2022/01/17 03:24:07;;;;;;;13.30;2.23;;;;;;;15.33;41.21;103230.09;5130175;27;20460;-67
2022/01/17 03:26:32;;;;;;;5.97;1.20;;;;;;;14.78;42.02;103229.56;5122873;27;20047;-67
2022/01/17 03:29:00;;;;;;;7.57;1.83;;;;;;;15.87;40.30;103227.00;5096189;28;20024;-67
2022/01/17 03:31:26;;;;;;;9.83;1.87;;;;;;;15.76;40.02;103224.25;5124886;28;20023;-67
2022/01/17 03:33:52;;;;;;;5.73;3.50;;;;;;;15.82;40.22;103224.31;5112083;28;20073;-67
2022/01/17 03:36:17;;;;;;;5.13;1.67;;;;;;;15.61;41.68;103225.03;5106675;27;20034;-67
2022/01/17 03:38:43;;;;;;;7.50;1.77;;;;;;;15.36;41.13;103218.66;5116425;27;20069;-67
2022/01/17 03:41:12;;;;;;;12.77;2.77;;;;;;;15.51;41.23;103217.91;5114724;27;20045;-67
2022/01/17 03:43:38;;;;;;;13.83;2.07;;;;;;;14.68;43.29;103221.56;5134007;27;20462;-67
2022/01/17 03:46:04;;;;;;;5.07;1.67;;;;;;;15.09;43.19;103215.81;5127098;27;20084;-67
2022/01/17 03:48:31;;;;;;;17.30;2.03;;;;;;;15.06;43.40;103226.34;5116235;27;20100;-68
2022/01/17 03:50:58;;;;;;;10.97;2.00;;;;;;;15.81;41.08;103226.94;5111550;27;20019;-67
2022/01/17 03:53:24;;;;;;;15.03;2.80;;;;;;;15.24;42.11;103216.84;5115859;27;20035;-67
2022/01/17 03:55:50;;;;;;;11.63;2.43;;;;;;;14.48;44.23;103205.53;5133880;27;20026;-68
2022/01/17 03:58:15;;;;;;;6.90;2.50;;;;;;;15.45;42.21;103208.22;5115120;27;20493;-67
2022/01/17 04:00:44;;;;;;;11.20;2.63;;;;;;;16.11;41.03;103205.09;5115158;27;20550;-68
2022/01/17 04:03:11;;;;;;;14.57;3.77;;;;;;;14.81;43.84;103208.53;5115693;27;20072;-69
2022/01/17 04:05:36;;;;;;;13.57;3.10;;;;;;;14.73;44.32;103209.34;5132531;27;20023;-69
2022/01/17 04:08:02;;;;;;;11.43;3.57;;;;;;;15.38;43.08;103207.28;5108031;28;20044;-69
2022/01/17 04:10:28;;;;;;;14.70;4.10;;;;;;;15.09;44.22;103221.09;5095530;28;20035;-69
2022/01/17 04:13:00;;;;;;;13.37;3.17;;;;;;;15.00;44.40;103217.50;5109211;28;20481;-67
2022/01/17 04:15:25;;;;;;;22.80;4.30;;;;;;;15.08;43.91;103223.72;5124799;27;20486;-69
2022/01/17 04:17:51;;;;;;;17.40;4.17;;;;;;;15.41;44.26;103222.22;5130199;27;20055;-69
2022/01/17 04:20:25;;;;;;;12.63;4.90;;;;;;;15.72;43.60;103212.78;5104103;27;20122;-69
2022/01/17 04:22:54;;;;;;;19.63;3.90;;;;;;;15.60;43.82;103236.44;5112850;28;20462;-68
2022/01/17 04:25:21;;;;;;;15.77;4.30;;;;;;;15.13;45.01;103242.22;5121565;27;20475;-69
2022/01/17 04:27:48;;;;;;;16.00;4.80;;;;;;;15.86;43.23;103235.75;5116001;27;20119;-69
2022/01/17 04:30:14;;;;;;;23.00;5.17;;;;;;;14.92;45.36;103249.91;5109993;28;20475;-68
2022/01/17 04:32:44;;;;;;;20.40;5.80;;;;;;;15.09;45.56;103257.97;5094631;28;20050;-69
2022/01/17 04:35:11;;;;;;;12.93;5.57;;;;;;;15.04;45.87;103253.53;5110458;27;20034;-69
2022/01/17 04:37:37;;;;;;;15.20;5.63;;;;;;;15.58;44.46;103246.09;5115435;27;20490;-69
2022/01/17 04:40:03;;;;;;;21.80;7.17;;;;;;;15.98;43.71;103246.38;5130714;27;20073;-69
2022/01/17 04:42:29;;;;;;;22.33;6.63;;;;;;;16.02;43.49;103242.88;5095108;28;20529;-69
2022/01/17 04:45:07;;;;;;;21.73;6.17;;;;;;;14.92;45.08;103247.28;5117716;27;20019;-69
2022/01/17 04:47:36;;;;;;;26.20;6.87;;;;;;;14.95;45.85;103249.06;5113259;28;20080;-69
2022/01/17 04:50:09;;;;;;;12.80;5.23;;;;;;;15.36;44.47;103238.03;5131575;27;20027;-69
2022/01/17 04:52:36;;;;;;;19.27;6.03;;;;;;;14.51;45.93;103241.53;5115050;27;20059;-69
2022/01/17 04:55:08;;;;;;;26.00;6.70;;;;;;;14.59;46.64;103245.13;5112981;27;20091;-69
2022/01/17 04:57:33;;;;;;;19.13;5.68;;;;;;;14.59;46.05;103245.13;5115084;27;20031;-69
2022/01/17 04:59:58;;;;;;;19.03;6.30;;;;;;;14.18;47.35;103253.41;5111325;27;20030;-69
2022/01/17 05:02:24;;;;;;;15.20;6.20;;;;;;;14.17;47.60;103251.63;5114346;27;20062;-69
2022/01/17 05:04:51;;;;;;;21.07;5.97;;;;;;;14.52;46.80;103253.81;5132808;27;20023;-69
2022/01/17 05:07:16;;;;;;;20.37;6.50;;;;;;;15.97;43.32;103244.63;5093417;28;20100;-69
2022/01/17 05:09:43;;;;;;;22.20;5.50;;;;;;;15.74;44.51;103242.69;5124636;27;20099;-69
2022/01/17 05:12:10;;;;;;;20.80;6.67;;;;;;;15.88;43.57;103249.81;5094003;28;20368;-69
2022/01/17 05:14:38;;;;;;;22.20;6.13;;;;;;;14.86;45.62;103255.09;5108155;27;20015;-69
2022/01/17 05:17:21;;;;;;;25.97;5.93;;;;;;;14.87;46.27;103261.25;5132725;27;20453;-69
2022/01/17 05:19:49;;;;;;;17.88;5.35;;;;;;;14.91;45.84;103257.81;5109685;28;20573;-69
2022/01/17 05:22:19;;;;;;;27.03;5.70;;;;;;;15.26;45.85;103260.78;5095265;28;20044;-69
2022/01/17 05:24:45;;;;;;;12.43;4.97;;;;;;;15.04;46.93;103259.69;5109214;27;20486;-69
2022/01/17 05:27:11;;;;;;;13.57;5.50;;;;;;;15.18;45.79;103266.81;5114199;27;20046;-69
2022/01/17 05:29:37;;;;;;;20.47;5.60;;;;;;;14.84;46.01;103266.50;5125773;27;20020;-69
2022/01/17 05:32:03;;;;;;;25.07;5.70;;;;;;;15.23;44.67;103270.41;5094099;28;20395;-69
2022/01/17 05:34:28;;;;;;;20.73;6.37;;;;;;;15.21;45.23;103267.75;5105299;27;20023;-69
2022/01/17 05:36:54;;;;;;;16.17;5.00;;;;;;;15.93;43.75;103274.47;5113414;27;20490;-69
2022/01/17 05:39:19;;;;;;;17.67;6.27;;;;;;;15.58;45.01;103264.56;5113195;27;20015;-69
2022/01/17 05:41:45;;;;;;;14.43;6.07;;;;;;;15.26;45.12;103267.78;5104998;28;20038;-69
2022/01/17 05:44:10;;;;;;;16.50;5.57;;;;;;;15.46;44.95;103261.81;5114930;27;20027;-69
2022/01/17 05:46:35;;;;;;;19.20;6.37;;;;;;;15.59;44.86;103258.38;5130693;27;20807;-69
2022/01/17 05:49:01;;;;;;;14.53;5.57;;;;;;;14.89;47.02;103251.63;5113082;27;20114;-69
2022/01/17 05:51:26;;;;;;;17.47;6.07;;;;;;;15.58;45.16;103239.06;5112533;27;20428;-69
2022/01/17 05:53:51;;;;;;;14.77;6.10;;;;;;;14.91;47.16;103247.25;5113216;27;20034;-69
2022/01/17 05:56:17;;;;;;;21.23;6.60;;;;;;;16.16;44.22;103250.88;5113289;27;20075;-69
2022/01/17 05:58:42;;;;;;;27.10;7.67;;;;;;;16.44;43.34;103250.97;5130814;27;20114;-69
2022/01/17 06:01:09;;;;;;;19.63;8.00;;;;;;;15.65;45.59;103268.09;5111207;28;20502;-69
2022/01/17 06:03:35;;;;;;;20.97;7.30;;;;;;;16.37;44.05;103258.00;5092449;28;20548;-69
2022/01/17 06:06:03;;;;;;;26.30;8.50;;;;;;;16.22;44.29;103256.16;5131371;27;20082;-69
2022/01/17 06:08:28;;;;;;;30.60;8.70;;;;;;;15.45;46.18;103260.91;5112174;27;20083;-69
2022/01/17 06:10:54;;;;;;;21.37;8.77;;;;;;;16.43;43.55;103276.50;5112092;27;20031;-69
2022/01/17 06:13:19;;;;;;;26.17;9.70;;;;;;;16.88;42.11;103275.75;5112862;27;20031;-69
2022/01/17 06:15:45;;;;;;;22.40;9.87;;;;;;;15.59;45.17;103279.47;5113808;27;20019;-69
2022/01/17 06:18:10;;;;;;;24.80;9.40;;;;;;;16.06;44.25;103271.06;5109131;27;20139;-69
2022/01/17 06:20:35;;;;;;;25.37;9.67;;;;;;;15.55;45.34;103288.22;5106917;28;20075;-69
2022/01/17 06:23:00;;;;;;;28.77;9.60;;;;;;;16.13;44.17;103292.19;5109617;28;20038;-68
2022/01/17 06:25:26;;;;;;;29.30;10.10;;;;;;;16.16;43.42;103297.50;5108293;28;20408;-69
2022/01/17 06:27:51;;;;;;;29.60;12.07;;;;;;;16.79;42.26;103305.69;5109252;28;20099;-69
2022/01/17 06:30:16;;;;;;;22.70;10.20;;;;;;;16.67;42.51;103298.59;5090537;28;20371;-69
2022/01/17 06:32:43;;;;;;;27.33;11.17;;;;;;;16.05;44.03;103295.66;5096659;28;20043;-69
2022/01/17 06:35:09;;;;;;;30.50;10.00;;;;;;;16.92;41.58;103291.66;5110158;28;20368;-69
2022/01/17 06:37:35;;;;;;;30.57;10.63;;;;;;;15.80;44.10;103299.00;5109379;28;20034;-69
2022/01/17 06:40:01;;;;;;;32.60;10.50;;;;;;;15.22;44.99;103294.97;5105581;28;20479;-69
2022/01/17 06:42:26;;;;;;;34.63;10.73;;;;;;;16.37;42.99;103292.31;5108028;28;20042;-69
2022/01/17 06:44:52;;;;;;;36.20;11.27;;;;;;;16.41;43.08;103296.72;5097171;28;20354;-69
2022/01/17 06:47:17;;;;;;;29.67;10.97;;;;;;;16.39;42.29;103290.56;5109434;28;20031;-69
2022/01/17 06:49:43;;;;;;;26.60;10.23;;;;;;;15.53;43.88;103295.25;5102067;28;20103;-69
2022/01/17 06:52:08;;;;;;;37.20;12.37;;;;;;;15.78;44.33;103289.31;5108874;28;20026;-69
2022/01/17 06:54:34;;;;;;;28.57;10.20;;;;;;;16.28;42.89;103292.28;5101473;28;20468;-69
2022/01/17 06:56:59;;;;;;;32.07;11.63;;;;;;;16.52;42.36;103317.03;5109157;28;20448;-69
2022/01/17 06:59:25;;;;;;;32.90;9.03;;;;;;;16.01;43.25;103330.81;5098302;28;20023;-69
2022/01/17 07:01:50;;;;;;;33.27;11.50;;;;;;;16.82;40.85;103341.78;5106830;28;20031;-69
2022/01/17 07:04:15;;;;;;;27.40;10.50;;;;;;;16.34;42.01;103345.06;5108385;28;20126;-69
2022/01/17 07:06:41;;;;;;;25.50;9.10;;;;;;;16.29;42.19;103367.91;5095516;28;20036;-69
2022/01/17 07:09:11;;;;;;;30.57;8.97;;;;;;;16.83;41.53;103367.31;5108495;28;20041;-69
2022/01/17 07:11:38;;;;;;;27.73;9.90;;;;;;;16.58;41.51;103359.28;5108226;28;20172;-69
2022/01/17 07:14:11;;;;;;;24.87;10.07;;;;;;;16.19;42.52;103350.28;5092298;28;20024;-69
2022/01/17 07:16:38;;;;;;;26.90;9.73;;;;;;;16.40;41.71;103350.41;5101241;28;20036;-69
2022/01/17 07:19:04;;;;;;;21.73;8.07;;;;;;;16.37;41.92;103342.44;5108150;28;20038;-69
2022/01/17 07:21:30;;;;;;;27.43;8.90;;;;;;;16.30;41.96;103327.47;5107770;28;20050;-69
2022/01/17 07:23:55;;;;;;;23.13;8.27;;;;;;;15.65;43.19;103328.72;5108466;28;20031;-68
2022/01/17 07:26:21;;;;;;;22.03;7.57;;;;;;;15.98;42.49;103328.16;5098902;28;20032;-69
2022/01/17 07:28:46;;;;;;;27.50;7.13;;;;;;;15.96;42.40;103337.78;5103108;28;20444;-69
2022/01/17 07:31:12;;;;;;;25.00;6.57;;;;;;;16.74;40.90;103341.75;5105664;28;20023;-69
2022/01/17 07:33:38;;;;;;;18.80;6.70;;;;;;;16.72;40.77;103347.03;5092874;28;20180;-69
2022/01/17 07:36:06;;;;;;;20.90;6.30;;;;;;;16.41;42.14;103362.72;5102644;28;20068;-68
2022/01/17 07:38:32;;;;;;;25.53;6.53;;;;;;;16.31;41.75;103376.75;5091064;28;20055;-69
2022/01/17 07:40:57;;;;;;;12.40;5.13;;;;;;;16.93;40.40;103377.09;5097342;28;20036;-67
2022/01/17 07:43:23;;;;;;;24.87;5.60;;;;;;;16.51;41.64;103389.16;5098645;28;20085;-67
2022/01/17 07:51:26;;;;;;;19.80;4.73;;;;;;;15.84;42.22;103395.72;5097889;28;20069;-68
2022/01/17 07:53:52;;;;;;;19.50;4.03;;;;;;;16.00;42.66;103397.63;5104731;28;20023;-67
2022/01/17 07:56:18;;;;;;;21.30;4.17;;;;;;;16.92;40.36;103391.16;5104988;28;20023;-69
2022/01/17 07:58:44;;;;;;;16.80;4.10;;;;;;;16.52;41.46;103393.59;5095828;28;20547;-69
2022/01/17 08:01:09;;;;;;;8.70;3.37;;;;;;;16.96;40.45;103388.53;5108417;28;20027;-68
2022/01/17 08:03:35;;;;;;;11.70;3.83;;;;;;;16.27;41.41;103406.63;5105923;28;20024;-69
2022/01/17 08:06:01;;;;;;;13.90;3.20;;;;;;;17.50;39.74;103405.41;5104540;28;20102;-69
2022/01/17 08:08:26;;;;;;;10.63;3.33;;;;;;;17.35;40.39;103400.97;5089585;28;20055;-69
2022/01/17 08:10:52;;;;;;;19.97;5.10;;;;;;;16.40;42.13;103389.09;5094670;28;20039;-68
2022/01/17 08:13:20;;;;;;;13.20;3.57;;;;;;;16.25;42.70;103381.97;5108565;28;20461;-68
2022/01/17 08:15:47;;;;;;;10.23;2.80;;;;;;;15.84;43.17;103416.81;5095803;28;20439;-69
2022/01/17 08:18:13;;;;;;;22.20;3.60;;;;;;;16.27;41.77;103402.22;5087576;28;20028;-69
2022/01/17 08:20:39;;;;;;;11.00;3.80;;;;;;;16.35;41.83;103399.63;5092419;28;20543;-69
2022/01/17 08:23:04;;;;;;;16.93;2.90;;;;;;;16.83;41.43;103414.84;5110355;28;20106;-68
2022/01/17 08:25:30;;;;;;;16.73;3.33;;;;;;;16.33;42.68;103417.22;5104607;28;20528;-68
2022/01/17 08:27:56;;;;;;;12.07;3.03;;;;;;;16.73;41.15;103406.91;5108006;27;20075;-68
2022/01/17 08:30:23;;;;;;;15.83;3.43;;;;;;;16.37;42.64;103413.72;5111540;28;20060;-68
2022/01/17 08:32:49;;;;;;;21.07;3.77;;;;;;;16.50;41.89;103414.69;5111369;28;20027;-69
2022/01/17 08:35:14;;;;;;;12.30;3.27;;;;;;;16.43;42.59;103412.88;5112026;28;20536;-68
2022/01/17 08:37:39;;;;;;;14.37;3.07;;;;;;;16.47;42.54;103409.38;5110641;28;20107;-69
2022/01/17 08:40:07;;;;;;;24.23;4.60;;;;;;;16.48;42.25;103405.00;5090538;28;20115;-69
2022/01/17 08:42:36;;;;;;;18.47;3.67;;;;;;;17.58;40.08;103404.53;5111150;28;20023;-68
2022/01/17 08:45:03;;;;;;;21.60;3.30;;;;;;;18.44;38.28;103398.34;5109284;28;20032;-69
2022/01/17 08:47:28;;;;;;;15.53;3.53;;;;;;;18.27;38.15;103401.06;5109570;28;20023;-69
2022/01/17 08:49:53;;;;;;;22.03;4.43;;;;;;;17.41;39.94;103404.50;5096870;28;20039;-69
2022/01/17 08:52:20;;;;;;;20.90;3.17;;;;;;;17.62;40.57;103410.72;5110778;28;20020;-69
2022/01/17 08:54:46;;;;;;;14.33;2.80;;;;;;;17.86;40.19;103399.28;5112386;28;20361;-69
2022/01/17 08:57:12;;;;;;;26.97;3.40;;;;;;;17.19;41.30;103411.50;5109861;28;20039;-68
2022/01/17 08:59:37;;;;;;;14.17;2.73;;;;;;;17.32;40.75;103417.72;5109788;28;20024;-69
2022/01/17 09:02:04;;;;;;;17.13;3.57;;;;;;;16.95;42.48;103413.19;5109545;28;20081;-69
2022/01/17 09:04:29;;;;;;;14.10;2.93;;;;;;;17.74;40.46;103421.31;5112741;28;20098;-69
2022/01/17 09:06:55;;;;;;;21.03;3.03;;;;;;;17.12;41.14;103429.09;5109448;28;20512;-69
2022/01/17 09:09:20;;;;;;;17.37;4.10;;;;;;;17.49;41.24;103425.69;5112164;28;20035;-68
2022/01/17 09:11:45;;;;;;;8.53;2.80;;;;;;;17.54;40.95;103425.69;5108042;28;20047;-69
2022/01/17 09:14:11;;;;;;;13.47;2.90;;;;;;;17.60;40.10;103438.94;5109750;28;20042;-68
2022/01/17 09:16:36;;;;;;;16.77;3.10;;;;;;;17.74;40.69;103442.47;5103177;28;20436;-69
2022/01/17 09:19:04;;;;;;;7.67;3.10;;;;;;;17.30;42.47;103453.84;5110558;28;20027;-68
2022/01/17 09:21:30;;;;;;;24.00;3.73;;;;;;;17.72;40.35;103460.13;5124338;27;20092;-68
2022/01/17 09:23:57;;;;;;;20.50;2.97;;;;;;;17.05;41.14;103461.66;5120818;27;20035;-68
2022/01/17 09:26:25;;;;;;;26.00;3.43;;;;;;;18.10;40.06;103461.91;5093736;28;20035;-68
2022/01/17 09:28:54;;;;;;;23.13;2.93;;;;;;;17.59;41.77;103468.91;5092998;28;20039;-68
2022/01/17 09:31:19;;;;;;;12.83;2.90;;;;;;;17.67;41.52;103471.53;5122762;27;20042;-68
2022/01/17 09:33:45;;;;;;;12.47;2.67;;;;;;;18.20;40.16;103464.56;5114070;27;20023;-68
2022/01/17 09:36:10;;;;;;;11.67;2.93;;;;;;;17.61;40.99;103467.13;5131010;27;20110;-68
2022/01/17 09:38:36;;;;;;;16.40;3.50;;;;;;;16.90;42.23;103466.88;5114127;27;20458;-68
2022/01/17 09:41:03;;;;;;;15.63;2.53;;;;;;;18.11;39.91;103462.81;5113486;27;20121;-68
2022/01/17 09:43:29;;;;;;;12.57;2.23;;;;;;;17.25;41.63;103474.06;5103126;27;20019;-68
2022/01/17 09:45:55;;;;;;;11.43;2.27;;;;;;;18.28;39.47;103473.41;5113968;27;20031;-68
2022/01/17 09:48:23;;;;;;;16.10;3.00;;;;;;;17.21;42.33;103478.47;5112858;27;20027;-68
2022/01/17 09:51:04;;;;;;;20.37;3.60;;;;;;;17.93;41.32;103480.44;5128067;27;20011;-68
2022/01/17 09:53:38;;;;;;;16.67;3.20;;;;;;;17.83;40.82;103472.47;5113690;27;20031;-69
2022/01/17 09:56:05;;;;;;;17.63;3.23;;;;;;;17.85;40.62;103482.16;5112642;27;20035;-69
2022/01/17 09:58:30;;;;;;;12.97;2.60;;;;;;;17.62;41.48;103490.94;5113178;27;20482;-68
2022/01/17 10:00:56;;;;;;;13.53;1.97;;;;;;;18.47;39.41;103498.97;5112989;27;20035;-68
2022/01/17 10:03:22;;;;;;;11.90;2.10;;;;;;;17.64;41.56;103496.25;5112746;27;20034;-69
2022/01/17 10:05:48;;;;;;;17.07;3.00;;;;;;;18.48;39.25;103503.38;5113707;27;20023;-69
2022/01/17 10:08:16;;;;;;;14.07;2.53;;;;;;;17.80;40.07;103498.06;5121372;27;20016;-69
2022/01/17 10:10:54;;;;;;;21.20;2.90;;;;;;;16.69;43.12;103500.19;5110941;27;20030;-68
2022/01/17 10:13:33;;;;;;;12.00;2.70;;;;;;;18.50;40.28;103507.81;5092599;28;20108;-68
2022/01/17 10:16:11;;;;;;;16.93;2.50;;;;;;;18.46;39.56;103505.16;5093020;28;20031;-69
2022/01/17 10:18:48;;;;;;;10.37;2.13;;;;;;;17.83;40.42;103509.50;5092183;28;20023;-68
2022/01/17 10:22:02;;;;;;;16.03;1.70;;;;;;;16.76;43.33;103523.13;5092891;28;20043;-68
2022/01/17 10:30:11;;;;;;;12.40;2.23;;;;;;;17.50;41.80;103524.41;5131562;27;20054;-69
2022/01/17 10:35:25;;;;;;;18.83;2.77;;;;;;;19.42;37.64;103528.78;5131480;27;20035;-69
2022/01/17 10:38:08;;;;;;;12.40;2.43;;;;;;;19.10;39.07;103520.97;5130454;27;20042;-69
2022/01/17 10:40:49;;;;;;;14.20;2.50;;;;;;;19.68;38.15;103519.81;5130513;27;20039;-69
2022/01/17 10:43:35;;;;;;;19.23;2.33;;;;;;;18.17;40.47;103518.41;5101464;28;20474;-69
2022/01/17 10:46:07;;;;;;;17.90;3.13;;;;;;;18.33;40.49;103524.59;5119975;27;20039;-69
2022/01/17 10:48:42;;;;;;;10.33;2.30;;;;;;;18.50;40.28;103503.38;5112775;27;20545;-69
2022/01/17 10:51:09;;;;;;;12.50;2.43;;;;;;;17.95;40.69;103514.84;5105729;27;20026;-69
2022/01/17 10:53:37;;;;;;;8.70;2.60;;;;;;;18.34;40.41;103523.72;5103384;27;20054;-70
2022/01/17 10:56:07;;;;;;;20.23;2.30;;;;;;;18.22;41.03;103519.28;5106355;27;20114;-69
2022/01/17 10:58:35;;;;;;;12.77;2.50;;;;;;;17.80;41.56;103532.44;5127561;27;20034;-69
2022/01/17 11:01:09;;;;;;;12.30;1.90;;;;;;;17.45;42.37;103541.13;5127026;27;20295;-69
2022/01/17 11:03:35;;;;;;;10.23;1.80;;;;;;;18.99;39.64;103545.72;5101892;28;20391;-69
2022/01/17 11:06:04;;;;;;;10.63;1.73;;;;;;;17.88;40.84;103540.38;5100188;27;20034;-69
2022/01/17 11:08:32;;;;;;;13.70;2.67;;;;;;;18.57;40.21;103546.63;5129601;27;20467;-69
2022/01/17 11:11:00;;;;;;;13.73;2.03;;;;;;;18.01;41.44;103545.72;5111008;27;20068;-69
2022/01/17 11:13:29;;;;;;;13.30;1.80;;;;;;;17.73;41.61;103551.78;5103698;27;20424;-69
2022/01/17 11:16:00;;;;;;;13.37;2.27;;;;;;;19.12;38.42;103546.59;5111432;27;20031;-69
2022/01/17 11:18:29;;;;;;;23.67;3.10;;;;;;;18.72;39.57;103557.22;5109621;27;20050;-69
2022/01/17 11:20:58;;;;;;;9.63;1.77;;;;;;;18.63;39.90;103559.91;5128506;27;20079;-69
2022/01/17 11:23:24;;;;;;;11.97;2.20;;;;;;;18.78;39.24;103557.22;5111568;27;20113;-69
2022/01/17 11:25:55;;;;;;;10.03;1.50;;;;;;;19.03;38.74;103561.59;5111746;28;20038;-69
2022/01/17 11:28:26;;;;;;;17.03;2.03;;;;;;;19.64;38.06;103556.06;5128937;27;20062;-68
2022/01/17 11:30:54;;;;;;;11.07;1.77;;;;;;;18.48;40.39;103559.00;5103696;28;20076;-69
2022/01/17 11:33:20;;;;;;;19.53;2.50;;;;;;;19.70;37.52;103547.22;5111109;27;20031;-68
2022/01/17 11:35:51;;;;;;;15.77;2.50;;;;;;;19.13;38.37;103550.97;5111045;28;20382;-68
2022/01/17 11:38:25;;;;;;;10.03;2.90;;;;;;;18.19;40.25;103558.09;5110133;28;20432;-68
2022/01/17 11:40:52;;;;;;;17.57;2.57;;;;;;;19.93;37.43;103549.75;5110049;28;20031;-68
2022/01/17 11:43:54;;;;;;;14.57;2.80;;;;;;;18.48;39.69;103553.72;5099415;28;20035;-68